createdAt,value
2022-09-18T00:01:27.847Z,5.00
2022-09-18T00:03:57.502Z,2.80
2022-09-18T00:06:26.669Z,6.80
2022-09-18T00:08:55.862Z,4.90
2022-09-18T00:11:25.633Z,3.80
2022-09-18T00:13:53.544Z,4.90
2022-09-18T00:16:22.787Z,5.40
2022-09-18T00:18:50.101Z,3.10
2022-09-18T00:21:20.200Z,3.20
2022-09-18T00:23:47.875Z,6.30
2022-09-18T00:26:17.083Z,4.80
2022-09-18T00:28:45.247Z,3.30
2022-09-18T00:31:15.693Z,4.50
2022-09-18T00:33:43.450Z,4.50
2022-09-18T00:36:14.479Z,2.30
2022-09-18T00:38:42.353Z,4.60
2022-09-18T00:41:19.655Z,6.40
2022-09-18T00:43:46.683Z,4.60
2022-09-18T00:46:34.151Z,6.90
2022-09-18T00:49:24.705Z,5.70
2022-09-18T00:51:55.339Z,2.20
2022-09-18T00:54:31.601Z,4.40
2022-09-18T00:57:02.746Z,5.20
2022-09-18T00:59:32.767Z,5.60
2022-09-18T01:02:01.074Z,4.80
2022-09-18T01:04:29.416Z,4.80
2022-09-18T01:07:22.063Z,2.80
2022-09-18T01:10:11.230Z,4.20
2022-09-18T01:12:51.488Z,6.80
2022-09-18T01:15:37.888Z,4.40
2022-09-18T01:18:29.921Z,4.00
2022-09-18T01:21:35.615Z,2.70
2022-09-18T01:24:14.909Z,3.60
2022-09-18T01:26:48.212Z,4.00
2022-09-18T01:29:43.207Z,4.40
2022-09-18T01:32:19.778Z,4.50
2022-09-18T01:35:06.407Z,3.00
2022-09-18T01:37:47.129Z,3.10
2022-09-18T01:40:24.339Z,4.50
2022-09-18T01:42:55.161Z,5.80
2022-09-18T01:45:28.709Z,3.80
2022-09-18T01:47:59.995Z,5.20
2022-09-18T01:53:24.426Z,4.40
2022-09-18T01:56:00.485Z,4.40
2022-09-18T01:58:29.376Z,5.70
2022-09-18T02:01:02.579Z,4.90
2022-09-18T02:03:42.209Z,5.20
2022-09-18T02:06:26.507Z,2.60
2022-09-18T02:08:56.887Z,3.90
2022-09-18T02:11:25.058Z,5.30
2022-09-18T02:14:01.326Z,7.00
2022-09-18T02:16:58.173Z,4.70
2022-09-18T02:19:31.172Z,4.60
2022-09-18T02:22:00.972Z,4.90
2022-09-18T02:24:33.753Z,5.70
2022-09-18T02:27:03.644Z,4.20
2022-09-18T02:29:32.632Z,6.00
2022-09-18T02:32:00.921Z,4.20
2022-09-18T02:34:29.315Z,5.50
2022-09-18T02:37:36.121Z,2.40
2022-09-18T02:40:40.884Z,4.90
2022-09-18T02:43:18.828Z,5.80
2022-09-18T02:46:07.335Z,4.90
2022-09-18T02:48:41.289Z,4.40
2022-09-18T02:51:25.130Z,4.40
2022-09-18T02:54:11.225Z,6.50
2022-09-18T02:56:47.902Z,4.70
2022-09-18T02:59:17.914Z,6.00
2022-09-18T03:01:52.729Z,6.00
2022-09-18T03:04:23.685Z,5.20
2022-09-18T03:07:04.960Z,7.20
2022-09-18T03:09:38.257Z,4.50
2022-09-18T03:12:05.410Z,10.80
2022-09-18T03:14:37.679Z,4.10
2022-09-18T03:17:05.236Z,4.80
2022-09-18T03:19:32.776Z,6.60
2022-09-18T03:22:01.995Z,3.40
2022-09-18T03:24:30.475Z,2.70
2022-09-18T03:26:57.881Z,4.20
2022-09-18T03:29:27.029Z,6.90
2022-09-18T03:31:55.629Z,4.10
2022-09-18T03:34:23.172Z,4.30
2022-09-18T03:36:50.423Z,4.20
2022-09-18T03:39:18.290Z,4.10
2022-09-18T03:41:46.668Z,5.20
2022-09-18T03:44:13.921Z,5.50
2022-09-18T03:46:42.671Z,3.40
2022-09-18T03:49:09.858Z,4.00
2022-09-18T03:51:39.159Z,4.50
2022-09-18T03:54:07.139Z,3.30
2022-09-18T03:56:58.650Z,3.00
2022-09-18T03:59:37.782Z,3.30
2022-09-18T04:02:14.788Z,4.60
2022-09-18T04:05:05.634Z,4.40
2022-09-18T04:07:53.068Z,3.40
2022-09-18T04:10:38.602Z,3.40
2022-09-18T04:13:05.620Z,3.00
2022-09-18T04:15:35.536Z,2.40
2022-09-18T04:18:02.691Z,4.30
2022-09-18T04:20:29.937Z,4.80
2022-09-18T04:23:00.976Z,3.90
2022-09-18T04:25:28.129Z,4.20
2022-09-18T04:27:56.302Z,2.20
2022-09-18T04:30:23.862Z,3.00
2022-09-18T04:32:51.010Z,3.50
2022-09-18T04:35:18.878Z,3.20
2022-09-18T04:37:46.233Z,3.50
2022-09-18T04:40:13.692Z,5.50
2022-09-18T04:42:41.251Z,3.60
2022-09-18T04:45:08.796Z,7.10
2022-09-18T04:47:35.963Z,3.30
2022-09-18T04:50:05.460Z,3.80
2022-09-18T04:52:33.024Z,2.70
2022-09-18T04:55:02.124Z,3.20
2022-09-18T04:57:29.576Z,2.60
2022-09-18T04:59:56.623Z,2.30
2022-09-18T05:02:24.996Z,3.20
2022-09-18T05:04:52.561Z,2.30
2022-09-18T05:07:26.059Z,2.10
2022-09-18T05:09:53.209Z,2.20
2022-09-18T05:12:20.464Z,2.50
2022-09-18T05:14:47.514Z,1.60
2022-09-18T05:17:15.887Z,2.20
2022-09-18T05:19:56.048Z,6.40
2022-09-18T05:22:25.042Z,2.50
2022-09-18T05:24:52.492Z,4.20
2022-09-18T05:27:21.449Z,1.70
2022-09-18T05:29:51.809Z,4.70
2022-09-18T05:32:21.809Z,2.10
2022-09-18T05:34:50.616Z,1.90
2022-09-18T05:37:18.777Z,1.50
2022-09-18T05:39:48.706Z,1.30
2022-09-18T05:42:15.754Z,1.90
2022-09-18T05:44:43.517Z,2.90
2022-09-18T05:47:14.822Z,2.20
2022-09-18T05:49:42.013Z,1.50
2022-09-18T05:52:09.572Z,1.30
2022-09-18T05:54:36.927Z,1.40
2022-09-18T05:57:04.079Z,2.40
2022-09-18T05:59:31.322Z,1.90
2022-09-18T06:02:00.258Z,1.60
2022-09-18T06:04:52.812Z,1.50
2022-09-18T06:07:19.816Z,1.60
2022-09-18T06:09:46.962Z,2.00
2022-09-18T06:12:14.309Z,3.50
2022-09-18T06:14:41.302Z,2.00
2022-09-18T06:17:08.312Z,1.80
2022-09-18T06:19:35.664Z,2.00
2022-09-18T06:22:02.712Z,1.70
2022-09-18T06:24:30.067Z,2.10
2022-09-18T06:27:03.055Z,1.40
2022-09-18T06:29:30.101Z,1.80
2022-09-18T06:32:02.784Z,1.90
2022-09-18T06:34:32.749Z,1.80
2022-09-18T06:37:03.941Z,2.00
2022-09-18T06:39:36.928Z,1.20
2022-09-18T06:42:05.169Z,2.10
2022-09-18T06:44:46.643Z,1.90
2022-09-18T06:47:15.234Z,1.70
2022-09-18T06:49:44.778Z,2.20
2022-09-18T06:52:11.855Z,1.30
2022-09-18T06:54:39.459Z,1.90
2022-09-18T06:57:10.722Z,2.60
2022-09-18T06:59:38.498Z,2.50
2022-09-18T07:02:18.695Z,2.10
2022-09-18T07:04:53.281Z,2.50
2022-09-18T07:07:20.530Z,2.00
2022-09-18T07:09:48.601Z,2.40
2022-09-18T07:12:24.149Z,2.40
2022-09-18T07:14:54.074Z,2.50
2022-09-18T07:17:25.651Z,1.50
2022-09-18T07:19:53.994Z,2.20
2022-09-18T07:22:24.325Z,2.30
2022-09-18T07:24:51.674Z,3.10
2022-09-18T07:27:18.723Z,3.50
2022-09-18T07:29:47.407Z,2.40
2022-09-18T07:32:15.751Z,1.70
2022-09-18T07:34:44.724Z,2.60
2022-09-18T07:37:13.976Z,2.70
2022-09-18T07:39:44.403Z,3.00
2022-09-18T07:42:29.955Z,3.10
2022-09-18T07:44:57.957Z,2.00
2022-09-18T07:47:26.129Z,2.70
2022-09-18T07:49:53.713Z,3.20
2022-09-18T07:52:21.625Z,3.70
2022-09-18T07:54:51.778Z,3.30
2022-09-18T07:57:33.774Z,1.70
2022-09-18T08:00:33.692Z,3.90
2022-09-18T08:05:53.182Z,2.60
2022-09-18T08:08:20.438Z,4.50
2022-09-18T08:11:10.522Z,2.90
2022-09-18T08:13:55.694Z,2.90
2022-09-18T08:16:38.381Z,2.50
2022-09-18T08:19:28.702Z,2.50
2022-09-18T08:22:05.894Z,2.20
2022-09-18T08:24:33.457Z,3.30
2022-09-18T08:27:03.877Z,1.30
2022-09-18T08:29:32.149Z,1.60
2022-09-18T08:32:06.579Z,2.30
2022-09-18T08:34:36.995Z,1.90
2022-09-18T08:37:04.351Z,2.20
2022-09-18T08:39:49.983Z,1.60
2022-09-18T08:42:47.663Z,0.70
2022-09-18T08:45:17.759Z,1.80
2022-09-18T08:47:58.387Z,1.70
2022-09-18T08:50:35.002Z,1.50
2022-09-18T08:53:13.105Z,1.40
2022-09-18T08:56:02.637Z,1.60
2022-09-18T08:59:04.092Z,1.30
2022-09-18T09:02:14.430Z,1.30
2022-09-18T09:04:42.526Z,1.60
2022-09-18T09:07:23.812Z,1.60
2022-09-18T09:09:57.214Z,2.60
2022-09-18T09:12:31.021Z,2.10
2022-09-18T09:15:17.136Z,0.90
2022-09-18T09:18:17.127Z,1.00
2022-09-18T09:20:54.103Z,1.20
2022-09-18T09:23:31.554Z,1.00
2022-09-18T09:26:06.426Z,1.30
2022-09-18T09:29:23.448Z,1.70
2022-09-18T09:32:26.026Z,0.70
2022-09-18T09:35:14.475Z,0.90
2022-09-18T09:38:05.207Z,3.20
2022-09-18T09:40:53.115Z,1.00
2022-09-18T09:43:38.903Z,1.00
2022-09-18T09:46:41.377Z,0.90
2022-09-18T09:49:24.810Z,0.80
2022-09-18T09:52:09.331Z,1.20
2022-09-18T09:54:37.543Z,1.00
2022-09-18T09:57:23.432Z,1.20
2022-09-18T09:59:59.675Z,0.90
2022-09-18T10:03:00.534Z,1.00
2022-09-18T10:05:30.352Z,1.20
2022-09-18T10:08:14.528Z,0.80
2022-09-18T10:10:49.476Z,2.20
2022-09-18T10:13:25.827Z,1.50
2022-09-18T10:16:02.418Z,1.00
2022-09-18T10:18:34.224Z,0.90
2022-09-18T10:21:23.084Z,0.80
2022-09-18T10:23:59.348Z,0.60
2022-09-18T10:26:33.314Z,0.80
2022-09-18T10:29:00.574Z,1.40
2022-09-18T10:31:46.613Z,1.10
2022-09-18T10:34:38.712Z,1.00
2022-09-18T10:37:31.073Z,1.00
2022-09-18T10:40:08.402Z,1.30
2022-09-18T10:42:37.716Z,1.00
2022-09-18T10:45:29.395Z,1.20
2022-09-18T10:48:43.622Z,1.20
2022-09-18T10:51:18.047Z,1.50
2022-09-18T10:54:02.257Z,2.00
2022-09-18T10:56:38.274Z,1.20
2022-09-18T10:59:35.326Z,1.50
2022-09-18T11:02:06.580Z,1.80
2022-09-18T11:04:35.255Z,4.20
2022-09-18T11:07:07.646Z,1.80
2022-09-18T11:09:40.925Z,2.00
2022-09-18T11:12:24.252Z,1.30
2022-09-18T11:15:03.363Z,1.50
2022-09-18T11:17:35.242Z,1.50
2022-09-18T11:20:06.488Z,4.60
2022-09-18T11:22:51.041Z,1.70
2022-09-18T11:25:26.804Z,1.70
2022-09-18T11:28:30.224Z,3.20
2022-09-18T11:31:00.524Z,2.50
2022-09-18T11:33:29.995Z,3.60
2022-09-18T11:36:07.900Z,2.40
2022-09-18T11:38:55.244Z,4.00
2022-09-18T11:41:26.132Z,1.80
2022-09-18T11:44:15.752Z,2.90
2022-09-18T11:47:20.088Z,3.30
2022-09-18T11:50:12.631Z,3.50
2022-09-18T11:52:47.388Z,2.30
2022-09-18T11:55:31.201Z,2.40
2022-09-18T11:58:12.939Z,4.40
2022-09-18T12:01:05.382Z,1.80
2022-09-18T12:03:40.978Z,1.70
2022-09-18T12:06:17.737Z,5.20
2022-09-18T12:08:49.042Z,3.30
2022-09-18T12:11:39.371Z,3.50
2022-09-18T12:14:17.748Z,4.10
2022-09-18T12:17:12.089Z,4.40
2022-09-18T12:19:49.276Z,2.70
2022-09-18T12:22:28.688Z,4.70
2022-09-18T12:24:56.168Z,6.70
2022-09-18T12:28:01.688Z,3.80
2022-09-18T12:30:47.268Z,4.00
2022-09-18T12:33:46.876Z,4.30
2022-09-18T12:36:54.220Z,5.10
2022-09-18T12:39:58.892Z,4.60
2022-09-18T12:43:03.883Z,6.80
2022-09-18T12:45:30.980Z,5.60
2022-09-18T12:48:40.492Z,6.00
2022-09-18T12:51:45.126Z,5.60
2022-09-18T12:54:44.464Z,6.40
2022-09-18T12:57:29.819Z,6.10
2022-09-18T13:00:14.057Z,4.60
2022-09-18T13:02:48.058Z,4.10
2022-09-18T13:05:29.938Z,5.80
2022-09-18T13:08:11.306Z,6.80
2022-09-18T13:10:42.809Z,8.10
2022-09-18T13:13:30.690Z,9.60
2022-09-18T13:16:05.558Z,9.60
2022-09-18T13:18:39.725Z,5.80
2022-09-18T13:21:17.515Z,4.90
2022-09-18T13:23:46.227Z,9.40
2022-09-18T13:26:15.731Z,6.70
2022-09-18T13:28:43.980Z,7.80
2022-09-18T13:31:29.306Z,7.80
2022-09-18T13:34:14.849Z,11.00
2022-09-18T13:36:44.751Z,9.10
2022-09-18T13:39:21.955Z,4.90
2022-09-18T13:41:54.709Z,5.80
2022-09-18T13:44:24.750Z,8.70
2022-09-18T13:46:58.405Z,7.70
2022-09-18T13:49:37.478Z,9.20
2022-09-18T13:52:29.713Z,13.00
2022-09-18T13:55:27.376Z,4.60
2022-09-18T13:58:34.770Z,10.60
2022-09-18T14:01:04.960Z,15.70
2022-09-18T14:03:35.863Z,16.80
2022-09-18T14:06:37.485Z,10.00
2022-09-18T14:09:44.776Z,7.70
2022-09-18T14:12:17.625Z,6.20
2022-09-18T14:15:07.099Z,4.90
2022-09-18T14:17:37.250Z,3.70
2022-09-18T14:20:21.946Z,3.50
2022-09-18T14:22:49.199Z,2.40
2022-09-18T14:25:43.731Z,2.70
2022-09-18T14:28:12.030Z,1.50
2022-09-18T14:30:39.078Z,3.60
2022-09-18T14:33:09.914Z,2.00
2022-09-18T14:35:43.106Z,1.50
2022-09-18T14:38:26.535Z,1.40
2022-09-18T14:41:01.346Z,2.40
2022-09-18T14:43:28.417Z,1.80
2022-09-18T14:45:56.003Z,1.30
2022-09-18T14:48:37.929Z,3.10
2022-09-18T14:53:44.160Z,3.50
2022-09-18T14:56:16.043Z,1.40
2022-09-18T14:58:46.855Z,1.30
2022-09-18T15:01:24.433Z,1.30
2022-09-18T15:03:53.881Z,2.70
2022-09-18T15:06:24.485Z,2.10
2022-09-18T15:08:54.790Z,2.90
2022-09-18T15:11:25.855Z,4.30
2022-09-18T15:13:55.538Z,3.10
2022-09-18T15:16:27.995Z,4.90
2022-09-18T15:18:56.368Z,2.30
2022-09-18T15:21:33.531Z,2.50
2022-09-18T15:24:02.919Z,1.80
2022-09-18T15:26:40.475Z,1.40
2022-09-18T15:29:38.559Z,2.20
2022-09-18T15:32:06.995Z,2.40
2022-09-18T15:34:48.253Z,2.30
2022-09-18T15:37:23.382Z,4.90
2022-09-18T15:40:05.494Z,1.30
2022-09-18T15:42:36.795Z,10.20
2022-09-18T15:45:04.197Z,2.00
2022-09-18T15:47:35.154Z,1.50
2022-09-18T15:50:30.022Z,4.60
2022-09-18T15:53:19.927Z,3.90
2022-09-18T15:55:54.731Z,5.40
2022-09-18T15:58:46.480Z,3.30
2022-09-18T16:01:23.898Z,1.70
2022-09-18T16:04:04.502Z,4.10
2022-09-18T16:06:41.408Z,2.90
2022-09-18T16:09:08.386Z,1.80
2022-09-18T16:11:44.874Z,4.60
2022-09-18T16:14:41.057Z,2.70
2022-09-18T16:17:32.818Z,2.00
2022-09-18T16:20:20.573Z,2.20
2022-09-18T16:22:48.380Z,6.40
2022-09-18T16:25:24.016Z,2.10
2022-09-18T16:27:54.570Z,3.40
2022-09-18T16:30:21.606Z,2.30
2022-09-18T16:32:48.849Z,3.00
2022-09-18T16:35:16.631Z,2.40
2022-09-18T16:37:44.142Z,0.90
2022-09-18T16:40:27.325Z,3.60
2022-09-18T16:42:58.559Z,2.00
2022-09-18T16:45:27.215Z,4.60
2022-09-18T16:48:00.322Z,1.80
2022-09-18T16:50:28.092Z,2.40
2022-09-18T16:52:57.593Z,1.10
2022-09-18T16:55:29.016Z,3.10
2022-09-18T16:57:57.533Z,3.30
2022-09-18T17:00:25.157Z,1.20
2022-09-18T17:02:52.604Z,3.70
2022-09-18T17:05:19.798Z,4.40
2022-09-18T17:07:46.790Z,4.00
2022-09-18T17:10:14.143Z,3.80
2022-09-18T17:12:41.913Z,5.90
2022-09-18T17:15:09.581Z,3.60
2022-09-18T17:17:36.993Z,4.30
2022-09-18T17:20:05.615Z,1.50
2022-09-18T17:22:33.389Z,0.60
2022-09-18T17:25:00.449Z,0.50
2022-09-18T17:27:27.460Z,2.80
2022-09-18T17:29:54.436Z,1.50
2022-09-18T17:32:21.602Z,1.20
2022-09-18T17:34:48.632Z,0.80
2022-09-18T17:37:15.620Z,0.90
2022-09-18T17:39:42.657Z,1.40
2022-09-18T17:42:09.708Z,6.50
2022-09-18T17:44:37.221Z,0.30
2022-09-18T17:47:04.602Z,0.80
2022-09-18T17:49:32.746Z,0.50
2022-09-18T17:52:00.337Z,0.40
2022-09-18T17:54:28.062Z,0.70
2022-09-18T17:56:55.843Z,0.70
2022-09-18T17:59:23.095Z,0.40
2022-09-18T18:01:50.640Z,0.50
2022-09-18T18:04:18.261Z,0.30
2022-09-18T18:06:49.359Z,1.70
2022-09-18T18:09:16.855Z,1.10
2022-09-18T18:11:45.503Z,0.90
2022-09-18T18:14:13.605Z,0.40
2022-09-18T18:16:41.528Z,1.00
2022-09-18T18:19:12.411Z,1.60
2022-09-18T18:21:41.510Z,0.70
2022-09-18T18:24:12.552Z,1.60
2022-09-18T18:26:40.476Z,3.30
2022-09-18T18:29:11.155Z,0.40
2022-09-18T18:31:40.633Z,0.70
2022-09-18T18:34:10.537Z,1.40
2022-09-18T18:36:40.186Z,0.70
2022-09-18T18:39:12.123Z,1.00
2022-09-18T18:41:39.902Z,1.50
2022-09-18T18:44:07.462Z,0.60
2022-09-18T18:46:36.674Z,0.60
2022-09-18T18:49:12.214Z,1.30
2022-09-18T18:51:47.763Z,0.50
2022-09-18T18:54:17.731Z,0.40
2022-09-18T18:56:47.181Z,1.00
2022-09-18T18:59:19.470Z,0.70
2022-09-18T19:01:47.725Z,0.60
2022-09-18T19:04:17.327Z,2.00
2022-09-18T19:06:45.090Z,0.50
2022-09-18T19:09:19.975Z,0.80
2022-09-18T19:11:49.487Z,0.80
2022-09-18T19:14:19.897Z,1.80
2022-09-18T19:16:48.352Z,0.90
2022-09-18T19:19:17.520Z,0.50
2022-09-18T19:21:44.987Z,0.60
2022-09-18T19:24:13.163Z,0.80
2022-09-18T19:26:42.301Z,1.20
2022-09-18T19:29:13.234Z,0.90
2022-09-18T19:31:42.925Z,1.60
2022-09-18T19:34:12.616Z,1.30
2022-09-18T19:36:40.221Z,0.50
2022-09-18T19:39:10.778Z,1.50
2022-09-18T19:42:02.099Z,0.70
2022-09-18T19:44:31.730Z,0.90
2022-09-18T19:47:02.667Z,0.80
2022-09-18T19:49:38.318Z,1.10
2022-09-18T19:52:18.135Z,0.90
2022-09-18T19:54:50.537Z,1.10
2022-09-18T19:57:18.814Z,0.50
2022-09-18T19:59:47.182Z,1.00
2022-09-18T20:02:17.474Z,1.00
2022-09-18T20:04:44.667Z,0.60
2022-09-18T20:07:12.714Z,3.10
2022-09-18T20:09:40.570Z,1.00
2022-09-18T20:12:08.756Z,1.40
2022-09-18T20:14:35.930Z,0.60
2022-09-18T20:17:03.080Z,0.70
2022-09-18T20:19:30.082Z,0.70
2022-09-18T20:21:57.077Z,0.70
2022-09-18T20:24:24.071Z,1.90
2022-09-18T20:26:51.626Z,0.60
2022-09-18T20:29:18.627Z,1.00
2022-09-18T20:31:46.212Z,1.10
2022-09-18T20:34:13.940Z,0.50
2022-09-18T20:36:40.939Z,0.70
2022-09-18T20:39:08.939Z,0.90
2022-09-18T20:41:35.988Z,0.90
2022-09-18T20:44:05.154Z,1.90
2022-09-18T20:46:36.886Z,2.90
2022-09-18T20:49:05.258Z,1.70
2022-09-18T20:51:37.151Z,2.00
2022-09-18T20:56:36.859Z,0.50
2022-09-18T20:59:05.202Z,1.00
2022-09-18T21:01:35.639Z,0.60
2022-09-18T21:04:03.783Z,1.10
2022-09-18T21:06:33.213Z,0.50
2022-09-18T21:09:05.966Z,0.90
2022-09-18T21:11:37.835Z,0.60
2022-09-18T21:16:36.287Z,0.40
2022-09-18T21:19:05.089Z,0.60
2022-09-18T21:21:34.240Z,1.10
2022-09-18T21:24:02.385Z,0.90
2022-09-18T21:26:40.417Z,0.90
2022-09-18T21:29:11.117Z,0.70
2022-09-18T21:31:42.633Z,0.60
2022-09-18T21:36:41.719Z,0.50
2022-09-18T21:39:11.039Z,1.10
2022-09-18T21:41:39.481Z,0.80
2022-09-18T21:44:09.043Z,0.90
2022-09-18T21:46:39.088Z,0.90
2022-09-18T21:49:07.614Z,0.60
2022-09-18T21:51:36.801Z,0.70
2022-09-18T21:54:05.755Z,0.40
2022-09-18T21:56:33.660Z,1.40
2022-09-18T21:59:01.089Z,0.90
2022-09-18T22:01:33.487Z,1.40
2022-09-18T22:04:02.388Z,1.50
2022-09-18T22:06:40.283Z,1.50
2022-09-18T22:09:18.291Z,1.70
2022-09-18T22:11:48.108Z,1.60
2022-09-18T22:14:22.792Z,1.20
2022-09-18T22:16:50.519Z,0.60
2022-09-18T22:19:18.154Z,0.90
2022-09-18T22:21:48.726Z,1.50
2022-09-18T22:24:19.378Z,0.90
2022-09-18T22:26:49.507Z,0.90
2022-09-18T22:29:28.774Z,0.70
2022-09-18T22:31:56.840Z,1.60
2022-09-18T22:34:26.549Z,0.60
2022-09-18T22:36:54.075Z,0.60
2022-09-18T22:39:22.795Z,0.80
2022-09-18T22:41:51.647Z,1.00
2022-09-18T22:44:21.471Z,0.90
2022-09-18T22:46:52.130Z,0.80
2022-09-18T22:49:20.606Z,0.60
2022-09-18T22:51:48.067Z,1.00
2022-09-18T22:54:16.930Z,0.40
2022-09-18T22:56:47.065Z,1.10
2022-09-18T22:59:16.379Z,1.60
2022-09-18T23:01:51.650Z,0.70
2022-09-18T23:04:20.977Z,1.10
2022-09-18T23:06:48.881Z,1.40
2022-09-18T23:09:17.367Z,1.70
2022-09-18T23:11:47.080Z,2.10
2022-09-18T23:14:20.735Z,0.70
2022-09-18T23:16:49.231Z,0.50
2022-09-18T23:19:22.823Z,0.60
2022-09-18T23:21:50.343Z,0.60
2022-09-18T23:24:18.437Z,1.00
2022-09-18T23:26:48.028Z,0.60
2022-09-18T23:29:18.393Z,0.80
2022-09-18T23:31:47.518Z,0.90
2022-09-18T23:34:20.213Z,0.50
2022-09-18T23:36:50.035Z,0.70
2022-09-18T23:39:24.536Z,0.60
2022-09-18T23:41:52.097Z,0.60
2022-09-18T23:44:21.296Z,1.70
2022-09-18T23:46:49.184Z,1.70
2022-09-18T23:49:19.239Z,1.80
2022-09-18T23:51:46.541Z,0.90
2022-09-18T23:54:26.045Z,0.50
2022-09-18T23:56:53.631Z,0.40
2022-09-18T23:59:23.441Z,0.70
